РПИ Туркменабат

Руководство

Evgeny Vygornitsky*

Куратор
Инструкторы РПИ
Evgeny Vygornitsky (Supervisor)
Входит в состав
Центральная Азия

Диспетчеры РПИ

Диспетчер Рейтинг Допуски *

Аэропорты РПИ

ICAO Город Название Погода
UTAV Туркменабад Туркменабат UTAV 221100Z 03008KT CAVOK 32/02 Q1010 R31/CLRD70 NOSIG